Historyczne dane pomiarowe

Dodano dane terminowe – wersja testowa.

Dane z okresu 1951-2019

Wersja bazy: 1.34 [2019-03-16, lista zmian], aktualizacja planowana na 2019-04-15

Dane meteo z obszaru Polski uzyskane na podstawie danych udostępnionych przez Instytut Meteorologii i Gospodarki Wodnej – Państwowy Instytut Badawczy.

 

Wybierz Datę:    

       

TemperaturaWilgotnośćWiatrCiśnienieOpadyŚniegCzas trwania zjawisk
 Stacja t tx tn tng RH VA  wxwx mslp ppp RRR   cm mm wxwxwxwxwxwxwx
2019-03-31 9.7 17.7 3.8 0.4 60.8 7.1- 3.0--1020.3 984.5 0.0 0.0 0.0x- 8.4-------
2019-03-30 8.6 17.2 0.1 -2.8 64.5 6.7- 1.4--1025.2 989.1 0.0 0.0 0.0x- 11.2-------
2019-03-29 5.7 11.6 -0.4 -2.9 76.8 6.9- 2.4--1032.7 995.9 0.0 0.0 0.0x- 3.2-------
2019-03-28 6.2 9.9 2.0 -0.1 78.1 7.3- 1.9--1031.0 994.4 0.2 0.2 0.0x- 1.7-------
2019-03-27 3.1 8.8 -3.3 -7.7 63.5 4.6- 2.5--1028.7 991.8 0.0 0.0 0.0x- 10.5-------
2019-03-26 3.4 7.1 1.8 1.0 76.1 5.9- 3.8--1021.0 984.4 0.9 0.6 0.3x- 2.4-------
2019-03-25 5.5--- 65.4 5.8- 3.1--1014.1 978.0 0.0 0.0 0.0x- 4.0-------
2019-03-24 8.0 13.5 3.7 3.2 60.0 6.2- 3.1--1023.4 987.3 0.0 0.0 0.0x- 10.5-------
2019-03-23 9.5 18.1 1.1 0.7 72.6 8.2- 1.1--1027.6 991.5 0.0 0.0 0.0x- 10.3-------
2019-03-22 7.7 9.6 6.1 3.6 87.6 9.2- 1.5--1033.2 996.8 0.0 0.0 0.0x- 0.0-------
2019-03-21 5.8 10.2 0.2 -3.5 69.0 6.5- 1.6--1034.2 997.4 0.0 0.0 0.0x- 0.2-------
2019-03-20 3.0 9.1 -2.4 -6.1 61.6 4.5- 1.9--1033.6 996.5 0.0 0.0 0.0x- 9.4-------
2019-03-19 3.1 8.1 0.1 -2.2 64.8 4.8- 2.4--1025.1 988.3 0.0 0.0 0.0x- 5.8-------
2019-03-18 5.3 14.2 3.6 3.2 72.8 6.5- 2.4--1014.0 977.9 0.0 0.0 0.0x- 3.2-------
2019-03-17 11.3 18.8 4.4 3.7 56.8 6.8- 3.0--1004.7 969.7 0.6 0.0 0.6x- 10.7-------
2019-03-16 5.9 8.7 4.1 2.7 67.3 6.2- 4.4--1004.9 969.2 0.2 0.0 0.2x- 4.1-------
2019-03-15 5.4 7.9 3.1 2.9 77.4 6.8- 3.8--1000.3 964.7 3.0 0.0 3.0x- 0.5-------
2019-03-14 4.9 8.7 2.7 0.9 71.4 6.1- 3.6--1004.4 968.6 2.6 1.5 1.1x- 2.7-------
2019-03-13 4.1 9.2 -0.4 -1.8 62.4 5.1- 3.5--1009.6 973.4 0.0 0.0 0.0x- 3.3-------
2019-03-12 1.4 4.9 -0.4 -1.9 76.3 5.1- 2.8--1018.8 982.1 0.0 0.0 0.0x- 3.2-------
2019-03-11 2.3 7.5 0.2 -0.1 81.1 5.8- 3.3--1009.2 972.9 2.4 1.7 0.7x- 2.1-------
2019-03-10 5.2 9.0 1.7 0.1 76.0 6.8- 3.5--1004.7 968.9 2.2 1.2 1.0x- 3.8-------
2019-03-09 5.4 9.9 2.8 1.3 79.0 7.0- 3.5--1011.8 975.8 14.8 5.3 9.5x- 3.1-------
2019-03-08 9.1 14.3 6.9 5.0 57.3 6.4- 3.5--1010.1 974.6 0.4 0.0 0.4x- 5.3-------
2019-03-07 9.5 16.5 3.7 2.5 52.8 6.3- 3.8--1004.2 969.0 0.0 0.0 0.0x- 5.6-------
2019-03-06 4.8 10.2 0.3 -1.1 67.6 5.6- 2.5--1014.2 978.1 0.0 0.0 0.0x- 9.2-------
2019-03-05 5.1 12.9 2.5 1.3 69.9 6.1- 3.8--1004.1 968.3 2.1 1.1 1.0x- 2.7-------
2019-03-04 11.2 15.7 7.8 6.5 54.8 7.1- 3.9-- 999.9 965.0 0.0 0.0 0.0x- 5.0-------
2019-03-03 5.7 10.6 -1.2 -4.9 76.8 7.1- 2.9--1011.4 975.4 0.0 0.0 0.0x- 0.1-------
2019-03-02 -1.1 2.8 -5.6-10.0 80.8 4.5- 1.6--1017.2 980.1 0.0 0.0 0.0x- 2.9-------
2019-03-01 2.7 8.6 1.1 -0.8 78.0 5.7- 3.0--1010.7 974.4 0.0 0.0 0.0x- 6.5-------
2019-02-28 7.3 13.2 2.4 0.6 61.9 6.1- 4.0--1009.2 973.5 0.0 0.0 0.0x- 9.7-------
2019-02-27 4.4 9.9 -0.7 -3.5 70.4 5.7- 2.6--1025.9 989.3 0.0 0.0 0.0x- 9.9-------
2019-02-26 5.6 10.0 2.6 0.4 74.1 6.7- 4.3--1028.0 991.5 0.0 0.0 0.0x- 5.6-------
2019-02-25 3.9--- 60.6 5.1- 2.8--1034.0 997.1 0.0 0.0 0.0x- 6.9-------
2019-02-24 0.0 4.2 -5.0 -7.3 51.8 3.0- 1.9--1039.31001.6 0.0 0.0 0.0x- 1.5-------
2019-02-23 -4.6 -0.8 -8.5 -9.6 62.0 2.6- 1.6--1045.41006.9 0.0 0.0 0.0x- 8.1-------
2019-02-22 -0.7 5.8 -4.0 -4.6 67.1 4.3- 4.4--1032.7 995.1 0.0 0.0 0.0x- 7.8-------
2019-02-21 4.9 8.7 3.5 2.1 82.3 7.1- 2.0--1023.5 987.0 11.4 5.3 6.1x- 1.9-------
2019-02-20 4.8 7.4 2.8 1.1 76.0 6.5- 2.5--1020.7 984.3 0.0 0.0 0.0x- 0.3-------
2019-02-19 7.4 13.0 3.8 0.3 62.6 6.3- 2.4--1017.1 981.1 0.8 0.0 0.8x- 9.4-------
2019-02-18 6.5 15.5 -0.1 -1.9 60.9 5.5- 2.0--1022.8 986.5 0.0 0.0 0.0x- 9.1-------
2019-02-17 6.1 13.4 0.6 -3.6 61.5 5.6- 1.8--1026.2 989.7 0.0 0.0 0.0x- 9.7-------
2019-02-16 5.4 13.9 -1.3 -3.5 60.9 5.0- 1.5--1029.5 992.8 0.0 0.0 0.0x- 9.5-------
2019-02-15 5.4 9.7 3.4 0.6 78.8 7.0- 1.3--1033.6 996.8 0.0 0.0 0.0x- 8.0-------
2019-02-14 5.1 6.8 4.0 3.0 89.8 7.9- 3.0--1034.3 997.5 0.0 0.0 0.0x- 0.0-------
2019-02-13 1.0 4.4 -2.5 -3.8 89.8 6.0- 2.4--1030.7 993.5 0.1 0.1 0.0x- 0.0-------
2019-02-12 0.4 2.8 -0.7 -1.7 76.1 4.8- 6.0--1022.0 984.9 0.0 0.0 0.0x- 1.2-------
2019-02-11 3.4 5.9 2.2 1.8 82.3 6.4- 3.5--1003.9 968.0 0.5 0.2 0.3x- 0.8-------
2019-02-10 4.7 8.8 1.3 0.0 72.3 6.1- 3.4--1008.8 972.8 0.1 0.0 0.1x- 6.5-------
2019-02-09 2.1 6.6 -1.0 -2.6 77.9 5.5- 3.9--1014.3 977.8 0.0 0.0 0.0x- 3.1-------
2019-02-08 2.2 6.8 0.3 -1.2 76.4 5.4- 2.4--1019.8 983.1 0.0 0.0 0.0x- 7.8-------
2019-02-07 0.0 5.5 -4.4 -5.1 69.5 4.2- 3.4--1019.6 982.6 0.0 0.0 0.0x- 8.9-------
2019-02-06 -0.5 3.6 -3.1 -6.7 83.1 4.9- 2.0--1029.2 991.8 0.0 0.0 0.0x- 4.5-------
2019-02-05 -1.7 1.1 -3.4 -6.8 88.6 4.8- 1.5--1029.7 992.1 0.0 0.0 0.0x- 6.0-------
2019-02-04 -1.0 0.5 -1.7 -2.2 97.1 5.5- 2.4--1026.9 989.5 0.1 0.1 0.0x- 0.0-------
2019-02-03 2.3 8.3 0.5 0.5 95.5 6.9- 2.9--1008.5 972.2 15.8 3.9 11.9x- 0.0-------
2019-02-02 6.9 12.5 1.7 0.2 74.8 7.4- 2.6-- 999.0 963.6 3.7 0.0 3.7x- 2.0-------
2019-02-01 -0.2 3.8 -4.8-10.4 77.8 4.7- 2.0--1002.9 966.5 0.0 0.0 0.0x- 2.8-------
2019-01-31 -1.8 3.0 -5.6-10.2 81.9 4.3- 1.3--1004.5 967.9 0.0 0.0 0.0x- 4.5-------
176.0 ms

 

Źródłem pochodzenia danych jest Instytut Meteorologii i Gospodarki Wodnej – Państwowy Instytut Badawczy. Dane Instytutu Meteorologii i Gospodarki Wodnej – Państwowego Instytutu Badawczego zostały przetworzone.

Dane źródłowe można odnaleźć na stronie https://dane.imgw.pl